Time;durP1;ratioP1;P1;durP2;ratioP2;P2;SDS_P1;SDS_P2;PMS_P1;PMS_P2;Temp;Humidity;BMP_temperature;BMP_pressure;BME280_temperature;BME280_humidity;BME280_pressure;Samples;Min_cycle;Max_cycle;Signal;HPM_P1;HPM_P2
2022/09/24 09:04:05;;;;;;;12.38;10.05;;;13.90;99.90;;;;;;5936130;23;20029;-88
2022/09/24 09:06:50;;;;;;;11.00;8.88;;;13.90;99.90;;;;;;5928785;23;20025;-90
2022/09/24 09:09:22;;;;;;;11.52;9.00;;;13.90;99.90;;;;;;5929656;23;20081;-88
2022/09/24 09:11:55;;;;;;;13.05;10.35;;;13.90;99.90;;;;;;5927821;23;20506;-90
2022/09/24 09:14:42;;;;;;;10.98;9.18;;;13.90;99.90;;;;;;5931165;23;20013;-90
2022/09/24 09:17:19;;;;;;;11.40;9.45;;;13.90;99.90;;;;;;5929352;23;20013;-91
2022/09/24 09:19:51;;;;;;;12.20;9.27;;;13.90;99.90;;;;;;5930518;23;20314;-91
2022/09/24 09:22:23;;;;;;;12.20;9.82;;;13.90;99.90;;;;;;5927641;23;20137;-91
2022/09/24 09:24:53;;;;;;;10.88;9.50;;;13.90;99.90;;;;;;5930783;23;20073;-90
2022/09/24 09:27:20;;;;;;;11.35;9.15;;;13.90;99.90;;;;;;5928607;23;20085;-92
2022/09/24 09:29:58;;;;;;;11.32;8.80;;;13.90;99.90;;;;;;5928213;23;20013;-92
2022/09/24 09:32:31;;;;;;;10.32;8.93;;;14.00;99.90;;;;;;5937736;23;20051;-93
2022/09/24 09:35:20;;;;;;;11.60;9.20;;;14.10;99.90;;;;;;5964578;23;20020;-93
2022/09/24 09:38:07;;;;;;;11.00;8.75;;;14.00;99.90;;;;;;6066837;23;20124;-89
2022/09/24 09:40:41;;;;;;;11.23;9.00;;;14.00;99.90;;;;;;6177693;23;20024;-90
2022/09/24 09:43:10;;;;;;;12.85;9.32;;;14.00;99.90;;;;;;6186870;23;20024;-91
2022/09/24 09:46:06;;;;;;;12.45;9.27;;;14.00;99.90;;;;;;6200781;23;20017;-91
2022/09/24 09:48:53;;;;;;;11.65;9.32;;;14.00;99.90;;;;;;6197600;23;20005;-90
2022/09/24 09:51:30;;;;;;;12.05;9.13;;;14.10;99.90;;;;;;6195910;23;19989;-89
2022/09/24 09:54:01;;;;;;;11.45;9.32;;;14.00;99.90;;;;;;6207885;23;20021;-90
2022/09/24 09:56:34;;;;;;;11.30;8.95;;;14.10;99.90;;;;;;6187389;23;20023;-90
2022/09/24 09:59:05;;;;;;;11.02;7.85;;;14.10;99.90;;;;;;6187528;23;19997;-90
2022/09/24 10:01:33;;;;;;;11.85;9.23;;;14.10;99.90;;;;;;6186520;23;20009;-89
2022/09/24 10:04:04;;;;;;;12.82;9.82;;;14.10;99.90;;;;;;6183262;23;20017;-90
2022/09/24 10:06:35;;;;;;;12.20;9.20;;;14.10;99.90;;;;;;6190792;23;20027;-90
2022/09/24 10:09:21;;;;;;;10.50;8.38;;;14.10;99.90;;;;;;6217644;23;20300;-91
2022/09/24 10:11:48;;;;;;;11.25;8.57;;;14.10;99.90;;;;;;6216560;23;20036;-91
2022/09/24 10:14:17;;;;;;;12.10;9.60;;;14.10;99.90;;;;;;6190766;23;20015;-89
2022/09/24 10:16:46;;;;;;;13.80;9.60;;;14.10;99.90;;;;;;6214495;23;20043;-89
2022/09/24 10:19:27;;;;;;;12.02;8.88;;;14.10;99.90;;;;;;6214808;23;20103;-89
2022/09/24 10:21:56;;;;;;;12.75;9.38;;;14.10;99.90;;;;;;6217271;23;20007;-89
2022/09/24 10:24:24;;;;;;;14.38;9.50;;;14.10;99.90;;;;;;6215691;23;20012;-90
2022/09/24 10:26:50;;;;;;;13.10;10.13;;;14.20;99.90;;;;;;6216410;23;20013;-90
2022/09/24 10:32:19;;;;;;;11.80;9.40;;;14.20;99.90;;;;;;6217545;23;20051;-90
2022/09/24 10:34:55;;;;;;;11.90;8.52;;;14.20;99.90;;;;;;6190294;23;20091;-88
2022/09/24 10:37:21;;;;;;;11.93;8.63;;;14.20;99.90;;;;;;6191026;23;20093;-89
2022/09/24 10:39:58;;;;;;;10.93;8.75;;;14.30;99.90;;;;;;6217053;23;20005;-91
2022/09/24 10:42:26;;;;;;;11.77;8.68;;;14.30;99.90;;;;;;6216120;23;20004;-91
2022/09/24 10:44:53;;;;;;;10.93;8.35;;;14.30;99.90;;;;;;6190748;23;20031;-90
2022/09/24 10:47:42;;;;;;;10.60;8.32;;;14.30;99.90;;;;;;6190734;23;20032;-92
2022/09/24 10:50:26;;;;;;;10.98;8.32;;;14.30;99.90;;;;;;6215857;23;20004;-90
2022/09/24 10:53:13;;;;;;;11.85;9.13;;;14.40;99.90;;;;;;6215519;23;20688;-92
2022/09/24 10:55:54;;;;;;;12.02;9.25;;;14.30;99.90;;;;;;6215277;23;20009;-89
2022/09/24 10:58:34;;;;;;;11.20;8.45;;;14.30;99.90;;;;;;6215556;23;20055;-89
2022/09/24 11:01:13;;;;;;;12.18;9.25;;;14.30;99.90;;;;;;6217169;23;20016;-92
2022/09/24 11:04:11;;;;;;;9.48;8.18;;;14.30;99.90;;;;;;6222125;23;20107;-94
2022/09/24 11:06:49;;;;;;;11.77;9.15;;;14.30;99.90;;;;;;6193654;23;20016;-93
2022/09/24 11:09:14;;;;;;;11.75;9.25;;;14.30;99.90;;;;;;6216945;23;20008;-91
2022/09/24 11:12:02;;;;;;;10.60;8.60;;;14.30;99.90;;;;;;6212206;23;20632;-91
2022/09/24 11:14:36;;;;;;;12.75;9.25;;;14.30;99.90;;;;;;6190754;23;20005;-91
2022/09/24 11:17:20;;;;;;;13.55;9.65;;;14.20;99.90;;;;;;6217680;23;20076;-92
2022/09/24 11:19:57;;;;;;;11.60;9.23;;;14.30;99.90;;;;;;6215710;23;20016;-89
2022/09/24 11:22:30;;;;;;;12.48;8.68;;;14.30;99.90;;;;;;6214802;23;20054;-92
2022/09/24 11:25:15;;;;;;;12.20;8.50;;;14.30;99.90;;;;;;6216686;23;20008;-91
2022/09/24 11:28:09;;;;;;;12.95;9.40;;;14.30;99.90;;;;;;6220637;23;20013;-91
2022/09/24 11:30:43;;;;;;;12.60;9.65;;;14.30;99.90;;;;;;6197198;23;20008;-92
2022/09/24 11:33:30;;;;;;;11.48;8.88;;;14.20;99.90;;;;;;6224040;23;20020;-91
2022/09/24 11:36:08;;;;;;;12.52;9.60;;;14.20;99.90;;;;;;6216948;23;20012;-91
2022/09/24 11:39:00;;;;;;;10.93;8.57;;;14.30;99.90;;;;;;6218231;23;20427;-91
2022/09/24 11:41:57;;;;;;;11.60;8.32;;;14.20;99.90;;;;;;6192421;23;20005;-93
2022/09/24 11:44:39;;;;;;;10.80;7.68;;;14.20;99.90;;;;;;6208669;23;20005;-92
2022/09/24 11:47:20;;;;;;;10.23;8.35;;;14.30;99.90;;;;;;6217476;23;20020;-94
2022/09/24 11:49:57;;;;;;;10.43;8.30;;;14.20;99.90;;;;;;6217095;23;20336;-92
2022/09/24 11:52:44;;;;;;;10.93;8.40;;;14.20;99.90;;;;;;6191600;23;20008;-92
2022/09/24 11:55:38;;;;;;;10.07;7.65;;;14.20;99.90;;;;;;6192906;23;20084;-93
2022/09/24 11:58:34;;;;;;;10.30;7.82;;;14.20;99.90;;;;;;6211270;23;20016;-94
2022/09/24 12:01:16;;;;;;;10.20;7.50;;;14.20;99.90;;;;;;6191311;23;20032;-93
2022/09/24 12:04:17;;;;;;;10.95;8.30;;;14.10;99.90;;;;;;6186468;23;20032;-92
2022/09/24 12:06:53;;;;;;;11.77;8.13;;;14.20;99.90;;;;;;6210904;23;20025;-92
2022/09/24 12:09:33;;;;;;;10.57;8.25;;;14.20;99.90;;;;;;6185859;23;20005;-92
2022/09/24 12:12:14;;;;;;;10.80;8.35;;;14.20;99.90;;;;;;6160777;23;20019;-92
2022/09/24 12:14:54;;;;;;;10.70;8.70;;;14.20;99.90;;;;;;6161396;23;20392;-92
2022/09/24 12:17:34;;;;;;;13.48;10.00;;;14.20;99.90;;;;;;6185857;23;20032;-93
2022/09/24 12:20:31;;;;;;;13.07;10.23;;;14.20;99.90;;;;;;6186421;23;20000;-93
2022/09/24 12:23:10;;;;;;;11.45;8.98;;;14.20;99.90;;;;;;6198739;23;20005;-91
2022/09/24 12:25:46;;;;;;;11.93;9.27;;;14.30;99.90;;;;;;6194238;23;20021;-93
2022/09/24 12:32:52;;;;;;;11.40;8.40;;;14.20;99.90;;;;;;6200093;23;20005;-93
2022/09/24 12:33:53;;;;;;;11.38;8.75;;;14.30;99.90;;;;;;6199826;23;20024;-90
2022/09/24 12:36:53;;;;;;;13.15;10.30;;;14.30;99.90;;;;;;6193177;23;20096;-92
2022/09/24 12:39:24;;;;;;;11.63;9.07;;;14.40;99.90;;;;;;6183587;23;20005;-91
2022/09/24 12:41:58;;;;;;;12.27;9.88;;;14.30;99.90;;;;;;6187987;23;20004;-91
2022/09/24 12:44:42;;;;;;;12.07;9.40;;;14.30;99.90;;;;;;6185517;23;20084;-91
2022/09/24 12:47:23;;;;;;;11.35;8.95;;;14.30;99.90;;;;;;6186633;23;20012;-93
2022/09/24 12:49:59;;;;;;;10.93;8.40;;;14.30;99.90;;;;;;6187288;23;20036;-92
2022/09/24 12:52:35;;;;;;;10.88;8.35;;;14.30;99.90;;;;;;6169927;23;20015;-94
2022/09/24 12:55:03;;;;;;;11.27;8.85;;;14.30;99.90;;;;;;6205215;22;20019;-93
2022/09/24 12:57:42;;;;;;;12.27;8.40;;;14.30;99.90;;;;;;6212408;23;20001;-94
2022/09/24 13:00:38;;;;;;;10.73;8.70;;;14.40;99.90;;;;;;6212998;23;19996;-93
2022/09/24 13:03:05;;;;;;;11.63;8.55;;;14.40;99.90;;;;;;6212389;23;20028;-91
2022/09/24 13:05:47;;;;;;;10.73;8.70;;;14.40;99.90;;;;;;6187407;23;20069;-90
2022/09/24 13:08:22;;;;;;;12.98;10.02;;;14.40;99.90;;;;;;6213434;23;20017;-89
2022/09/24 13:10:59;;;;;;;12.63;9.25;;;14.30;99.90;;;;;;6213237;23;20033;-91
2022/09/24 13:13:27;;;;;;;9.75;7.75;;;14.30;99.90;;;;;;6213857;23;20008;-90
2022/09/24 13:16:18;;;;;;;10.73;8.43;;;14.20;99.90;;;;;;6213009;23;20005;-89
2022/09/24 13:19:01;;;;;;;11.63;9.25;;;14.20;99.90;;;;;;6234185;22;19996;-91
2022/09/24 13:21:29;;;;;;;11.75;9.50;;;14.20;99.90;;;;;;6242358;22;20023;-89
2022/09/24 13:23:58;;;;;;;11.30;8.48;;;14.10;99.90;;;;;;6241232;22;20063;-87
2022/09/24 13:26:23;;;;;;;11.75;9.00;;;14.10;99.90;;;;;;6239427;22;20020;-90
2022/09/24 13:29:02;;;;;;;10.55;8.65;;;14.20;99.90;;;;;;6240011;22;20009;-89
2022/09/24 13:31:46;;;;;;;13.65;10.55;;;14.10;99.90;;;;;;6223956;23;20020;-91
2022/09/24 13:34:15;;;;;;;;;;;14.10;99.90;;;;;;6216497;23;20071;-91
2022/09/24 13:36:47;;;;;;;11.43;8.90;;;14.10;99.90;;;;;;6215247;23;19912;-92
2022/09/24 13:39:22;;;;;;;11.80;8.82;;;14.20;99.90;;;;;;6221575;23;20005;-93
2022/09/24 13:42:05;;;;;;;13.50;10.15;;;14.20;99.90;;;;;;6218259;23;20366;-93
2022/09/24 13:45:01;;;;;;;11.93;9.98;;;14.20;99.90;;;;;;6220030;23;20004;-94
2022/09/24 13:47:37;;;;;;;12.40;9.45;;;14.20;99.90;;;;;;6235032;22;20027;-93
2022/09/24 13:50:17;;;;;;;12.07;8.82;;;14.20;99.90;;;;;;6216430;23;20008;-95
2022/09/24 13:52:49;;;;;;;13.23;10.15;;;14.20;99.90;;;;;;6220297;23;20006;-91
2022/09/24 13:55:23;;;;;;;13.13;10.02;;;14.30;99.90;;;;;;6223233;23;20007;-93
2022/09/24 13:57:51;;;;;;;13.00;9.90;;;14.30;99.90;;;;;;6221963;23;20043;-92
2022/09/24 14:00:28;;;;;;;13.48;10.52;;;14.20;99.90;;;;;;6219667;23;20035;-94
2022/09/24 14:03:22;;;;;;;13.85;10.90;;;14.20;99.90;;;;;;6221727;23;20015;-92
2022/09/24 19:59:45;;;;;;;1.70;0.90;;;12.70;99.90;;;;;;6150173;22;20035;-92
2022/09/24 20:02:26;;;;;;;1.40;0.65;;;12.70;99.90;;;;;;6107276;23;20100;-92
2022/09/24 20:04:52;;;;;;;1.90;0.80;;;12.70;99.90;;;;;;6127116;23;20013;-93
2022/09/24 20:07:45;;;;;;;3.38;0.77;;;12.70;99.90;;;;;;6125990;23;20017;-91
2022/09/24 20:10:36;;;;;;;3.40;0.80;;;12.70;99.90;;;;;;6153150;23;20025;-93
2022/09/24 20:13:02;;;;;;;2.85;0.93;;;12.70;99.90;;;;;;6128050;23;20088;-90
2022/09/24 20:15:28;;;;;;;1.88;0.85;;;12.70;99.90;;;;;;6136186;23;19993;-90
2022/09/24 20:17:55;;;;;;;2.30;1.00;;;12.70;99.90;;;;;;6150561;23;20192;-90
2022/09/24 20:20:22;;;;;;;3.15;1.08;;;12.70;99.90;;;;;;6132594;23;20009;-91
2022/09/24 20:22:54;;;;;;;4.22;1.17;;;12.70;99.90;;;;;;6154028;23;19998;-90
2022/09/24 20:27:49;;;;;;;2.55;1.20;;;12.70;99.90;;;;;;6144167;23;20010;-89
2022/09/24 20:29:12;;;;;;;3.97;1.10;;;12.70;99.90;;;;;;6169614;23;20018;-93
2022/09/24 20:34:35;;;;;;;4.03;1.00;;;12.70;99.90;;;;;;6245269;22;20028;31
2022/09/24 20:37:18;;;;;;;2.03;1.00;;;12.70;99.90;;;;;;6190307;23;20052;-92
2022/09/24 20:40:26;;;;;;;3.05;1.30;;;12.70;99.90;;;;;;6195829;22;20017;-91
2022/09/24 20:43:04;;;;;;;2.15;1.10;;;12.70;99.90;;;;;;6220317;23;20008;-94
2022/09/24 20:53:27;;;;;;;5.13;1.35;;;12.70;99.90;;;;;;6281614;22;20018;-92
2022/09/24 20:55:54;;;;;;;4.32;1.40;;;12.70;99.90;;;;;;6263748;22;20007;-89
2022/09/24 20:58:20;;;;;;;2.50;1.20;;;12.70;99.90;;;;;;6270800;22;20007;-89
2022/09/24 21:00:53;;;;;;;3.53;1.20;;;12.70;99.90;;;;;;6278269;22;19999;-88
2022/09/24 21:03:22;;;;;;;;;;;12.70;99.90;;;;;;6277167;22;20047;-92
2022/09/24 21:06:37;;;;;;;4.70;1.10;;;12.70;99.90;;;;;;6274080;22;19911;-91
2022/09/24 21:09:03;;;;;;;2.75;1.10;;;12.70;99.90;;;;;;6229970;22;20059;-91
